Time;durP1;ratioP1;P1;durP2;ratioP2;P2;SDS_P1;SDS_P2;PMS_P1;PMS_P2;Temp;Humidity;BMP_temperature;BMP_pressure;BME280_temperature;BME280_humidity;BME280_pressure;Samples;Min_cycle;Max_cycle;Signal;HPM_P1;HPM_P2
2024/02/20 00:01:55;;;;;;;14.27;5.65;;;;;;;6.39;100.00;101282.13;10423715;28;20053;-81
2024/02/20 00:06:58;;;;;;;22.48;6.50;;;;;;;6.16;100.00;101283.22;10424425;28;20053;-80
2024/02/20 00:12:01;;;;;;;26.20;6.60;;;;;;;6.63;100.00;101279.16;10421682;28;20080;-80
2024/02/20 00:17:07;;;;;;;18.42;6.38;;;;;;;6.51;100.00;101287.78;10421520;28;20052;-79
2024/02/20 00:22:10;;;;;;;20.15;6.32;;;;;;;6.61;100.00;101295.28;10419996;28;20049;-81
2024/02/20 00:27:13;;;;;;;24.48;6.05;;;;;;;6.35;100.00;101293.88;10420491;28;20044;-81
2024/02/20 00:32:18;;;;;;;24.00;5.82;;;;;;;6.49;100.00;101297.69;10421000;28;20057;-80
2024/02/20 00:37:21;;;;;;;19.23;5.53;;;;;;;6.54;100.00;101299.19;10421614;28;21084;-82
2024/02/20 00:42:24;;;;;;;18.05;5.10;;;;;;;6.28;100.00;101308.47;10442393;28;20139;-82
2024/02/20 00:47:30;;;;;;;14.50;4.15;;;;;;;6.54;100.00;101304.53;10441703;28;20051;-82
2024/02/20 00:52:33;;;;;;;23.33;4.25;;;;;;;6.15;100.00;101302.00;10438740;28;20132;-80
2024/02/20 00:57:36;;;;;;;13.90;4.28;;;;;;;6.57;100.00;101309.69;10456292;28;20044;-82
2024/02/20 01:02:41;;;;;;;13.55;3.42;;;;;;;6.50;100.00;101310.06;10448816;28;20048;-80
2024/02/20 01:07:44;;;;;;;18.65;3.60;;;;;;;6.48;100.00;101312.84;10449992;28;20049;-81
2024/02/20 01:12:47;;;;;;;13.80;3.10;;;;;;;6.44;100.00;101321.06;10433766;28;20083;-82
2024/02/20 01:17:52;;;;;;;14.30;3.65;;;;;;;6.59;100.00;101314.97;10434326;28;20048;-82
2024/02/20 01:22:56;;;;;;;20.40;4.18;;;;;;;6.46;100.00;101325.38;10434480;28;20663;-81
2024/02/20 01:27:59;;;;;;;15.57;3.67;;;;;;;6.37;100.00;101321.38;10430369;28;20157;-82
2024/02/20 01:33:03;;;;;;;9.68;3.45;;;;;;;5.86;100.00;101322.03;10438908;28;20519;-82
2024/02/20 01:38:07;;;;;;;13.68;3.60;;;;;;;5.95;100.00;101318.94;10440858;28;20416;-81
2024/02/20 01:43:10;;;;;;;20.25;4.47;;;;;;;5.86;100.00;101330.03;10435377;28;20087;-81
2024/02/20 01:48:15;;;;;;;19.13;3.65;;;;;;;5.69;100.00;101333.47;10420640;28;20051;-81
2024/02/20 01:53:19;;;;;;;15.80;4.32;;;;;;;5.85;100.00;101346.97;10442623;28;20048;-81
2024/02/20 01:58:21;;;;;;;20.10;4.80;;;;;;;5.85;100.00;101350.50;10448856;28;20053;-81
2024/02/20 02:03:27;;;;;;;28.70;6.05;;;;;;;5.92;100.00;101341.31;10432490;28;20075;-80
2024/02/20 02:08:30;;;;;;;27.95;7.70;;;;;;;5.93;100.00;101342.16;10427311;28;20090;-81
2024/02/20 02:13:33;;;;;;;25.83;6.35;;;;;;;6.03;100.00;101358.59;10413603;28;20041;-82
2024/02/20 02:18:38;;;;;;;25.42;6.28;;;;;;;6.17;100.00;101367.69;10424812;28;20067;-81
2024/02/20 02:23:41;;;;;;;22.90;6.57;;;;;;;6.20;100.00;101366.69;10407579;28;20218;-81
2024/02/20 02:28:47;;;;;;;22.60;6.25;;;;;;;6.21;100.00;101378.22;10391315;28;20130;-81
2024/02/20 02:33:51;;;;;;;26.95;5.68;;;;;;;6.23;100.00;101382.53;10401466;28;20048;-81
2024/02/20 02:38:54;;;;;;;24.35;6.60;;;;;;;6.46;100.00;101378.78;10403186;28;20141;-81
2024/02/20 02:43:58;;;;;;;27.50;5.88;;;;;;;6.45;100.00;101378.88;10383985;28;20045;-81
2024/02/20 02:49:01;;;;;;;22.77;4.78;;;;;;;6.19;100.00;101383.63;10395261;28;20523;-81
2024/02/20 02:54:04;;;;;;;28.27;5.75;;;;;;;5.98;100.00;101384.59;10381354;28;20420;-81
2024/02/20 02:59:09;;;;;;;23.85;5.30;;;;;;;5.75;100.00;101393.66;10403796;28;20045;-81
2024/02/20 03:04:12;;;;;;;33.72;7.45;;;;;;;6.12;100.00;101391.06;10407991;28;20045;-79
2024/02/20 03:09:18;;;;;;;25.98;5.68;;;;;;;5.98;100.00;101404.16;10408194;28;20041;-81
2024/02/20 03:14:23;;;;;;;20.90;4.57;;;;;;;6.06;100.00;101409.13;10430127;28;20045;-80
2024/02/20 03:19:25;;;;;;;30.50;6.50;;;;;;;6.11;100.00;101415.13;10441191;28;20056;-83
2024/02/20 03:24:29;;;;;;;25.55;4.82;;;;;;;5.68;100.00;101417.06;10429738;28;20716;-81
2024/02/20 03:29:33;;;;;;;37.35;5.97;;;;;;;5.87;100.00;101423.31;10427655;28;20056;-81
2024/02/20 03:34:36;;;;;;;30.88;5.88;;;;;;;5.90;100.00;101435.66;10433530;28;20063;-82
2024/02/20 03:39:39;;;;;;;42.15;5.85;;;;;;;5.82;100.00;101440.47;10417918;28;20044;-81
2024/02/20 03:44:44;;;;;;;43.92;6.43;;;;;;;6.03;100.00;101435.94;10421375;28;20071;-80
2024/02/20 03:49:48;;;;;;;38.15;6.70;;;;;;;6.02;100.00;101439.56;10377630;28;20053;-81
2024/02/20 03:54:51;;;;;;;46.33;6.78;;;;;;;5.78;100.00;101449.50;10376656;28;20052;-81
2024/02/20 03:59:56;;;;;;;43.72;6.95;;;;;;;5.74;100.00;101443.44;10376788;28;20061;-82
2024/02/20 04:05:00;;;;;;;31.67;7.38;;;;;;;5.86;100.00;101450.91;10378985;28;20045;-81
2024/02/20 04:10:03;;;;;;;43.08;8.82;;;;;;;6.03;100.00;101455.47;10375784;28;20109;-82
2024/02/20 04:15:09;;;;;;;35.05;6.90;;;;;;;5.88;100.00;101459.69;10394621;28;20065;-82
2024/02/20 04:20:12;;;;;;;44.83;6.85;;;;;;;5.63;100.00;101467.91;10390864;28;20045;-82
2024/02/20 04:25:16;;;;;;;38.05;6.32;;;;;;;5.82;100.00;101462.66;10404999;28;21161;-81
2024/02/20 04:30:20;;;;;;;32.60;5.72;;;;;;;5.61;100.00;101471.56;10411001;28;20071;-82
2024/02/20 04:35:23;;;;;;;42.67;5.82;;;;;;;5.70;100.00;101469.41;10382834;28;20052;-82
2024/02/20 04:40:26;;;;;;;42.15;6.38;;;;;;;5.63;100.00;101472.38;10397366;28;20432;-82
2024/02/20 04:45:31;;;;;;;41.85;5.65;;;;;;;5.48;100.00;101472.09;10404702;28;20504;-82
2024/02/20 04:50:34;;;;;;;41.30;5.68;;;;;;;5.35;100.00;101468.22;10398761;28;20045;-82
2024/02/20 04:55:38;;;;;;;31.75;5.65;;;;;;;5.44;100.00;101467.84;10406120;28;20057;-81
2024/02/20 05:00:42;;;;;;;39.97;7.15;;;;;;;5.55;100.00;101477.19;10396294;28;20063;-82
2024/02/20 05:05:45;;;;;;;35.92;5.80;;;;;;;5.50;100.00;101475.56;10398676;28;20108;-82
2024/02/20 05:10:48;;;;;;;37.25;6.15;;;;;;;5.44;100.00;101472.31;10408632;28;20512;-80
2024/02/20 05:15:52;;;;;;;42.67;6.40;;;;;;;5.45;100.00;101474.88;10378686;28;20053;-80
2024/02/20 05:20:56;;;;;;;40.05;5.88;;;;;;;5.53;100.00;101476.38;10407143;28;20179;-82
2024/02/20 05:25:59;;;;;;;33.22;5.75;;;;;;;5.42;100.00;101472.34;10402198;28;20053;-82
2024/02/20 05:31:21;;;;;;;37.40;5.28;;;;;;;5.53;100.00;101476.38;10373327;28;20072;-81
2024/02/20 05:36:25;;;;;;;30.17;5.75;;;;;;;5.58;100.00;101469.03;10386037;28;20060;-81
2024/02/20 05:41:29;;;;;;;38.60;7.28;;;;;;;5.71;100.00;101467.59;10408557;28;20155;-82
2024/02/20 05:46:35;;;;;;;37.60;6.35;;;;;;;5.64;100.00;101471.44;10416859;28;20056;-80
2024/02/20 05:51:38;;;;;;;33.30;6.45;;;;;;;5.61;100.00;101474.25;10394727;28;20045;-82
2024/02/20 05:56:43;;;;;;;30.92;4.57;;;;;;;5.48;100.00;101477.41;10384890;28;20049;-80
2024/02/20 06:01:47;;;;;;;39.10;6.82;;;;;;;5.62;100.00;101486.63;10438630;28;20036;-82
2024/02/20 06:06:50;;;;;;;31.52;5.45;;;;;;;5.66;100.00;101478.44;10440813;28;20080;-81
2024/02/20 06:11:53;;;;;;;47.08;6.90;;;;;;;5.61;100.00;101485.75;10437604;28;20045;-81
2024/02/20 06:16:57;;;;;;;45.78;6.15;;;;;;;5.79;100.00;101493.91;10430377;28;20095;-82
2024/02/20 06:22:00;;;;;;;43.03;7.70;;;;;;;5.83;100.00;101507.03;10441077;28;20048;-82
2024/02/20 06:27:07;;;;;;;37.47;6.50;;;;;;;5.75;100.00;101514.50;10434765;28;20040;-81
2024/02/20 06:32:11;;;;;;;40.63;5.55;;;;;;;6.06;100.00;101518.50;10434798;28;20097;-82
2024/02/20 06:37:14;;;;;;;43.00;8.90;;;;;;;5.99;100.00;101519.72;10439685;28;20306;-82
2024/02/20 06:42:17;;;;;;;35.33;6.07;;;;;;;5.98;100.00;101525.97;10442083;28;20115;-82
2024/02/20 06:47:21;;;;;;;43.80;6.43;;;;;;;5.91;100.00;101525.38;10449636;28;20052;-82
2024/02/20 06:52:24;;;;;;;41.60;8.02;;;;;;;5.89;100.00;101527.25;10440543;28;20178;-82
2024/02/20 06:57:28;;;;;;;45.40;7.03;;;;;;;6.01;100.00;101531.19;10417309;28;20083;-82
2024/02/20 07:02:32;;;;;;;49.58;7.45;;;;;;;5.91;100.00;101520.91;10441937;28;20049;-81
2024/02/20 07:07:35;;;;;;;47.25;6.28;;;;;;;5.68;100.00;101524.56;10417106;28;20957;-82
2024/02/20 07:12:38;;;;;;;36.55;6.00;;;;;;;5.69;100.00;101520.09;10397863;28;20049;-81
2024/02/20 07:17:43;;;;;;;36.95;5.80;;;;;;;5.57;100.00;101531.25;10410181;28;20048;-81
2024/02/20 07:22:46;;;;;;;44.97;5.85;;;;;;;5.77;100.00;101522.44;10410154;28;20042;-80
2024/02/20 07:27:56;;;;;;;33.22;5.85;;;;;;;5.98;100.00;101516.19;10404433;28;20056;-80
2024/02/20 07:33:00;;;;;;;38.75;6.55;;;;;;;6.07;100.00;101521.09;10401302;28;20429;-81
2024/02/20 07:38:03;;;;;;;34.17;6.50;;;;;;;5.89;100.00;101522.75;10394195;28;20049;-81
2024/02/20 07:43:06;;;;;;;35.67;7.18;;;;;;;6.25;100.00;101526.56;10393536;28;20056;-80
2024/02/20 07:48:11;;;;;;;35.65;6.28;;;;;;;6.09;100.00;101519.25;10384552;28;20093;-81
2024/02/20 07:53:14;;;;;;;32.20;6.03;;;;;;;5.99;100.00;101530.38;10389021;28;20045;-81
2024/02/20 07:58:17;;;;;;;45.20;6.60;;;;;;;6.27;100.00;101536.22;10408300;28;20048;-80
2024/02/20 08:03:31;;;;;;;35.08;6.22;;;;;;;6.46;100.00;101532.72;10411072;28;20045;-82
2024/02/20 08:08:34;;;;;;;28.42;5.75;;;;;;;6.29;100.00;101530.84;10408522;28;20102;-82
2024/02/20 08:13:41;;;;;;;32.38;6.20;;;;;;;6.45;100.00;101523.00;10405621;28;20084;-82
2024/02/20 08:18:46;;;;;;;37.50;5.97;;;;;;;6.39;100.00;101519.69;10417488;28;20126;-82
2024/02/20 08:23:49;;;;;;;27.60;5.22;;;;;;;6.17;100.00;101518.88;10432600;28;20127;-81
2024/02/20 08:28:52;;;;;;;38.83;6.95;;;;;;;6.38;100.00;101511.72;10434551;28;20126;-80
2024/02/20 08:33:56;;;;;;;28.00;5.90;;;;;;;6.45;100.00;101515.84;10447216;28;20053;-82
2024/02/20 08:38:59;;;;;;;28.00;4.40;;;;;;;6.20;100.00;101521.44;10432054;28;20049;-80
2024/02/20 08:44:02;;;;;;;32.65;6.18;;;;;;;6.51;100.00;101528.06;10435800;28;20536;-81
2024/02/20 08:49:07;;;;;;;33.08;6.20;;;;;;;6.56;100.00;101526.03;10418685;28;20064;-81
2024/02/20 08:54:10;;;;;;;25.08;5.60;;;;;;;6.76;100.00;101535.78;10435346;28;20712;-81
2024/02/20 08:59:13;;;;;;;29.17;6.53;;;;;;;6.79;100.00;101541.84;10432825;28;20667;-82
2024/02/20 09:04:18;;;;;;;39.70;6.07;;;;;;;6.62;100.00;101533.75;10413414;28;20045;-82
2024/02/20 09:09:22;;;;;;;30.25;7.15;;;;;;;6.70;100.00;101538.75;10434576;28;20040;-82
2024/02/20 09:14:25;;;;;;;30.45;5.97;;;;;;;6.76;100.00;101533.97;10441955;28;20482;-84
2024/02/20 09:19:29;;;;;;;34.97;7.43;;;;;;;6.67;100.00;101531.75;10438276;28;20516;-80
2024/02/20 09:24:32;;;;;;;32.65;4.97;;;;;;;6.68;100.00;101530.81;10447591;28;20056;-80
2024/02/20 09:29:35;;;;;;;20.00;5.20;;;;;;;6.99;100.00;101526.72;10423767;28;20053;-80
2024/02/20 09:34:40;;;;;;;26.52;7.22;;;;;;;6.81;100.00;101526.63;10432049;28;20596;-80
2024/02/20 09:39:43;;;;;;;38.78;9.90;;;;;;;7.78;100.00;101523.72;10429408;28;20528;-79
2024/02/20 09:44:48;;;;;;;44.65;8.38;;;;;;;7.09;100.00;101528.00;10475445;28;20044;-81
2024/02/20 09:49:54;;;;;;;21.63;5.43;;;;;;;7.00;100.00;101523.13;10410546;28;21240;-81
2024/02/20 09:54:57;;;;;;;33.05;8.25;;;;;;;7.34;100.00;101529.47;10433618;28;20170;-80
2024/02/20 10:00:00;;;;;;;30.92;8.45;;;;;;;7.39;100.00;101525.63;10434071;28;20045;-79
2024/02/20 10:10:46;;;;;;;33.83;8.63;;;;;;;7.36;100.00;101538.31;10758496;23;20048;-81
2024/02/20 10:16:02;;;;;;;22.92;5.70;;;;;;;7.83;94.81;101543.06;10164756;29;20055;-82
2024/02/20 10:21:07;;;;;;;28.60;7.13;;;;;;;8.05;93.42;101532.97;10176857;29;20055;-82
2024/02/20 10:26:11;;;;;;;23.33;7.40;;;;;;;7.88;96.88;101541.03;10166015;29;20036;-82
2024/02/20 10:31:15;;;;;;;19.52;6.57;;;;;;;8.22;92.58;101531.22;10165165;29;21361;-81
2024/02/20 10:36:21;;;;;;;29.73;6.95;;;;;;;8.13;96.01;101527.22;10155771;29;20592;-82
2024/02/20 10:41:25;;;;;;;24.40;6.63;;;;;;;7.91;95.10;101525.66;10169277;29;20053;-82
2024/02/20 10:46:30;;;;;;;27.42;8.18;;;;;;;7.57;99.21;101523.88;10157536;29;20581;-82
2024/02/20 10:51:34;;;;;;;21.02;6.15;;;;;;;7.62;97.63;101532.50;10161701;29;20052;-81
2024/02/20 10:56:40;;;;;;;27.27;7.47;;;;;;;7.75;97.34;101519.38;10157558;29;20084;-81
2024/02/20 11:01:43;;;;;;;21.95;6.78;;;;;;;7.82;98.01;101518.13;10159540;29;20052;-80
2024/02/20 11:06:49;;;;;;;26.70;8.02;;;;;;;7.83;94.94;101514.50;10162411;29;20085;-81
2024/02/20 11:11:53;;;;;;;31.50;10.07;;;;;;;8.16;95.14;101501.16;10158627;29;20040;-81
2024/02/20 11:16:59;;;;;;;32.70;9.15;;;;;;;8.09;95.95;101501.56;10165466;29;20131;-82
2024/02/20 11:22:26;;;;;;;37.63;10.52;;;;;;;7.86;96.29;101503.63;10174017;29;20567;-81
2024/02/20 11:27:37;;;;;;;32.03;8.57;;;;;;;8.31;93.59;101495.91;10179713;29;20068;-81
2024/02/20 11:32:40;;;;;;;25.08;9.02;;;;;;;7.94;96.23;101481.84;10165822;29;20052;-80
2024/02/20 11:37:47;;;;;;;36.03;11.85;;;;;;;8.11;93.89;101472.91;10155596;29;20045;-81
2024/02/20 11:42:59;;;;;;;33.25;12.50;;;;;;;8.29;91.96;101477.28;10149034;29;20036;-80
2024/02/20 11:48:05;;;;;;;28.52;11.23;;;;;;;7.78;93.14;101463.03;10158224;29;20075;-81
2024/02/20 11:53:10;;;;;;;39.75;15.25;;;;;;;7.90;94.05;101457.06;10154230;29;20086;-82
2024/02/20 11:58:17;;;;;;;51.95;16.90;;;;;;;7.82;93.90;101451.25;10165440;29;20055;-81
2024/02/20 12:03:30;;;;;;;45.55;16.90;;;;;;;8.48;90.36;101455.75;10162912;29;20052;-82
2024/02/20 12:08:40;;;;;;;45.92;18.55;;;;;;;8.64;90.59;101452.22;10162862;29;20427;-82
2024/02/20 12:13:46;;;;;;;47.08;17.83;;;;;;;8.11;94.60;101452.34;10165019;29;20036;-80
2024/02/20 12:18:50;;;;;;;39.70;17.17;;;;;;;8.51;91.26;101444.00;10164053;29;20107;-82
2024/02/20 12:23:55;;;;;;;39.50;14.70;;;;;;;8.46;90.66;101446.94;10166478;29;20052;-81
2024/02/20 12:28:59;;;;;;;33.67;14.35;;;;;;;8.25;91.37;101434.69;10164142;29;20418;-80
2024/02/20 12:34:04;;;;;;;36.83;13.80;;;;;;;8.25;91.62;101421.31;10174803;29;20037;-81
2024/02/20 12:39:07;;;;;;;37.53;13.63;;;;;;;8.16;92.02;101418.19;10160724;29;20520;-81
2024/02/20 12:44:12;;;;;;;37.72;14.57;;;;;;;8.57;88.26;101423.09;10156571;29;20117;-81
2024/02/20 12:49:15;;;;;;;38.70;12.10;;;;;;;8.24;89.65;101424.94;10169488;29;20459;-81
2024/02/20 12:54:19;;;;;;;36.35;14.82;;;;;;;8.47;89.05;101431.72;10165562;29;20047;-80
2024/02/20 12:59:24;;;;;;;36.05;13.02;;;;;;;8.29;88.40;101417.53;10172764;29;20079;-80
2024/02/20 13:04:27;;;;;;;35.13;10.70;;;;;;;8.74;87.59;101413.25;10167103;29;20584;-84
2024/02/20 13:09:34;;;;;;;32.95;13.63;;;;;;;8.78;84.38;101406.78;10160612;29;20063;-80
2024/02/20 13:14:38;;;;;;;35.35;13.60;;;;;;;8.43;86.27;101412.25;10163354;29;20048;-79
2024/02/20 13:19:42;;;;;;;39.25;12.52;;;;;;;8.40;84.95;101413.28;10181112;29;20056;-81
2024/02/20 13:24:46;;;;;;;36.15;14.05;;;;;;;8.71;85.19;101398.22;10156753;29;20047;-81
2024/02/20 13:29:50;;;;;;;37.55;14.18;;;;;;;8.75;85.41;101391.75;10156270;29;20488;-82
2024/02/20 13:34:53;;;;;;;34.95;10.93;;;;;;;8.21;86.70;101401.03;10163572;29;20471;-80
2024/02/20 13:39:56;;;;;;;31.15;12.38;;;;;;;8.12;87.62;101373.81;10161464;29;20077;-80
2024/02/20 13:45:01;;;;;;;21.25;8.70;;;;;;;7.90;87.66;101373.25;10158926;29;20046;-80
2024/02/20 13:50:04;;;;;;;35.53;11.77;;;;;;;7.99;87.74;101362.06;10158111;29;20132;-81
2024/02/20 13:55:08;;;;;;;34.03;11.13;;;;;;;8.64;84.44;101366.50;10167534;29;20047;-83
2024/02/20 14:00:15;;;;;;;34.72;11.32;;;;;;;8.14;87.43;101371.91;10149007;29;20062;-82
2024/02/20 14:05:19;;;;;;;23.27;8.80;;;;;;;8.22;84.48;101355.41;10136643;29;20134;-82
2024/02/20 14:10:23;;;;;;;26.70;8.93;;;;;;;8.31;85.23;101348.69;10142194;29;20074;-82
2024/02/20 14:15:28;;;;;;;34.03;9.82;;;;;;;8.08;88.17;101360.69;10147906;29;20472;-82
2024/02/20 14:20:34;;;;;;;35.85;11.25;;;;;;;8.13;86.75;101362.16;10145414;29;20050;-81
2024/02/20 14:25:38;;;;;;;31.25;10.77;;;;;;;8.05;87.33;101356.34;10153329;29;20074;-81
2024/02/20 14:30:44;;;;;;;28.38;11.30;;;;;;;7.81;89.02;101353.19;10170051;29;20071;-79
2024/02/20 14:36:00;;;;;;;34.97;12.57;;;;;;;8.30;86.78;101368.38;10170172;29;20468;-79
2024/02/20 14:41:04;;;;;;;32.92;9.48;;;;;;;8.14;86.19;101365.69;10156940;29;20067;-78
2024/02/20 14:46:09;;;;;;;25.45;9.98;;;;;;;7.95;86.71;101352.44;10167285;29;20107;-80
2024/02/20 14:51:13;;;;;;;37.95;12.43;;;;;;;8.30;86.99;101355.84;10187089;28;20104;-80
2024/02/20 14:56:18;;;;;;;31.83;11.75;;;;;;;8.32;85.14;101361.13;10181182;28;20052;-79
2024/02/20 15:01:25;;;;;;;39.35;12.90;;;;;;;8.33;86.11;101360.16;10170108;28;20435;-78
2024/02/20 15:06:28;;;;;;;32.67;10.90;;;;;;;8.28;84.98;101352.44;10165972;28;20057;-81
2024/02/20 15:11:31;;;;;;;32.75;12.18;;;;;;;8.17;85.93;101358.38;10168690;28;20059;-80
2024/02/20 15:16:36;;;;;;;27.58;9.35;;;;;;;8.33;83.90;101357.50;10144987;28;20048;-81
2024/02/20 15:21:39;;;;;;;26.80;9.75;;;;;;;8.54;81.81;101342.06;10141053;29;20051;-82
2024/02/20 15:26:42;;;;;;;28.88;10.73;;;;;;;8.00;87.01;101337.00;10163992;28;20062;-81
2024/02/20 15:31:48;;;;;;;37.35;10.82;;;;;;;8.37;83.78;101337.66;10168478;28;20059;-80
2024/02/20 15:36:51;;;;;;;32.75;11.80;;;;;;;8.37;84.20;101333.16;10176194;28;20059;-80
2024/02/20 15:41:54;;;;;;;29.70;9.85;;;;;;;8.51;83.59;101337.75;10160248;29;20052;-80
2024/02/20 15:46:58;;;;;;;32.63;10.60;;;;;;;8.51;83.29;101328.84;10175048;28;20062;-81
2024/02/20 15:52:02;;;;;;;26.52;11.10;;;;;;;8.38;83.85;101323.28;10165732;28;20552;-81
2024/02/20 15:57:05;;;;;;;34.10;11.52;;;;;;;7.86;86.43;101323.53;10165455;28;20051;-81
2024/02/20 16:02:10;;;;;;;32.53;10.82;;;;;;;8.15;86.86;101317.44;10164642;28;20385;-80
2024/02/20 16:07:13;;;;;;;37.38;11.25;;;;;;;8.04;86.48;101319.00;10160848;28;20048;-80
2024/02/20 16:12:17;;;;;;;37.60;11.23;;;;;;;8.22;85.82;101322.44;10146822;28;20051;-80
2024/02/20 16:17:22;;;;;;;30.17;9.45;;;;;;;8.25;85.44;101308.88;10158768;28;21178;-81
2024/02/20 16:22:25;;;;;;;30.75;10.52;;;;;;;8.04;87.10;101324.34;10155808;28;20708;-81
2024/02/20 16:27:28;;;;;;;34.83;10.98;;;;;;;8.10;85.71;101310.63;10158110;28;20043;-80
2024/02/20 16:32:32;;;;;;;34.42;12.05;;;;;;;8.08;86.73;101302.66;10157822;29;20051;-79
2024/02/20 16:37:37;;;;;;;32.60;10.85;;;;;;;8.15;86.59;101301.38;10171502;28;20057;-81
2024/02/20 16:42:41;;;;;;;36.65;12.32;;;;;;;8.10;87.64;101305.25;10142045;28;20470;-81
2024/02/20 16:47:47;;;;;;;31.02;11.38;;;;;;;8.20;86.16;101295.78;10155714;28;20062;-80
2024/02/20 16:52:50;;;;;;;35.20;10.45;;;;;;;8.26;86.48;101302.59;10161448;29;20051;-80
2024/02/20 16:57:54;;;;;;;34.63;10.38;;;;;;;8.40;84.93;101292.81;10166542;28;20062;-79
2024/02/20 17:02:59;;;;;;;33.88;9.73;;;;;;;8.11;86.97;101291.78;10157697;29;20608;-80
2024/02/20 17:08:02;;;;;;;34.63;10.52;;;;;;;8.41;85.44;101296.34;10165088;28;20059;-79
2024/02/20 17:13:09;;;;;;;30.77;9.63;;;;;;;8.44;85.03;101282.78;10161127;28;20123;-82
2024/02/20 17:18:13;;;;;;;29.13;9.00;;;;;;;8.43;84.77;101274.84;10158634;28;20174;-80
2024/02/20 17:23:17;;;;;;;29.38;10.05;;;;;;;8.21;86.04;101276.06;10169287;28;20581;-78
2024/02/20 17:28:20;;;;;;;34.67;9.30;;;;;;;7.99;87.79;101275.56;10182895;28;20052;-79
2024/02/20 17:33:25;;;;;;;29.70;8.10;;;;;;;8.35;85.85;101272.59;10156848;28;20063;-79
2024/02/20 17:38:29;;;;;;;33.85;8.63;;;;;;;8.38;85.90;101267.94;10186128;28;20075;-79
2024/02/20 17:43:33;;;;;;;33.13;8.35;;;;;;;8.08;85.57;101265.19;10156890;28;20056;-79
2024/02/20 17:48:39;;;;;;;25.77;7.53;;;;;;;8.17;86.38;101269.16;10148720;28;21110;-79
2024/02/20 17:53:43;;;;;;;24.92;8.02;;;;;;;8.40;85.18;101262.50;10155835;29;20047;-80
2024/02/20 17:58:46;;;;;;;34.90;10.10;;;;;;;8.38;85.53;101256.38;10153574;28;20059;-80
2024/02/20 18:03:52;;;;;;;26.08;8.07;;;;;;;8.34;85.92;101255.69;10176212;28;20422;-79
2024/02/20 18:08:56;;;;;;;32.17;9.98;;;;;;;8.46;85.09;101258.63;10158310;28;20143;-79
2024/02/20 18:19:44;;;;;;;29.25;7.00;;;;;;;8.05;87.32;101230.59;10516299;23;20058;-80
2024/02/20 18:24:47;;;;;;;35.05;9.65;;;;;;;8.28;86.70;101226.59;10341681;28;20038;-80
2024/02/20 18:29:50;;;;;;;28.58;8.27;;;;;;;8.45;85.35;101230.97;10337151;28;20061;-82
2024/02/20 18:34:55;;;;;;;30.50;8.57;;;;;;;8.48;85.02;101224.59;10310067;28;20050;-79
2024/02/20 18:39:58;;;;;;;24.15;7.43;;;;;;;8.44;85.25;101217.66;10303277;28;20046;-80
2024/02/20 18:45:01;;;;;;;32.13;8.70;;;;;;;8.44;85.68;101215.84;10310660;28;20112;-79
2024/02/20 18:50:09;;;;;;;27.27;8.02;;;;;;;8.47;85.36;101206.78;10303077;28;20089;-80
2024/02/20 18:55:12;;;;;;;26.58;7.57;;;;;;;8.30;86.20;101218.47;10309240;28;21202;-79
2024/02/20 19:00:15;;;;;;;28.77;7.90;;;;;;;8.53;85.49;101201.97;10307714;28;20054;-80
2024/02/20 19:05:20;;;;;;;29.73;8.57;;;;;;;8.46;85.68;101208.63;10304077;28;20070;-79
2024/02/20 19:10:23;;;;;;;26.13;8.15;;;;;;;8.22;87.23;101204.66;10305600;28;20065;-80
2024/02/20 19:15:26;;;;;;;28.25;8.32;;;;;;;8.15;87.90;101201.50;10308894;28;20061;-80
2024/02/20 19:20:30;;;;;;;28.13;8.05;;;;;;;8.02;89.01;101189.78;10302481;28;20054;-79
2024/02/20 19:25:34;;;;;;;27.70;7.25;;;;;;;8.01;88.49;101185.34;10296943;28;20126;-81
2024/02/20 19:30:38;;;;;;;33.72;8.23;;;;;;;8.05;88.22;101170.84;10303371;28;21542;-79
2024/02/20 19:35:42;;;;;;;18.95;5.55;;;;;;;7.76;89.60;101159.16;10317858;28;20061;-81
2024/02/20 19:40:48;;;;;;;29.70;3.95;;;;;;;7.52;90.41;101178.31;10289595;28;20050;-80
2024/02/20 19:45:51;;;;;;;29.85;7.30;;;;;;;7.99;88.48;101182.78;10291152;28;20680;-81
2024/02/20 19:50:57;;;;;;;23.02;7.25;;;;;;;7.59;90.66;101173.47;10287872;28;20051;-82
2024/02/20 19:56:01;;;;;;;25.73;6.13;;;;;;;7.79;90.21;101159.84;10296257;28;21463;-82
2024/02/20 20:01:05;;;;;;;34.33;7.57;;;;;;;7.71;89.61;101162.97;10293402;28;20568;-79
2024/02/20 20:06:09;;;;;;;28.98;7.40;;;;;;;7.67;90.50;101160.53;10305955;28;20081;-81
2024/02/20 20:11:12;;;;;;;25.33;5.43;;;;;;;7.63;90.36;101150.97;10296709;28;20047;-80
2024/02/20 20:16:15;;;;;;;29.38;6.18;;;;;;;7.53;90.60;101150.63;10306943;28;20053;-81
2024/02/20 20:21:20;;;;;;;23.95;6.70;;;;;;;7.87;88.13;101146.00;10310812;28;20058;-81
2024/02/20 20:26:23;;;;;;;24.40;7.03;;;;;;;7.83;88.98;101142.66;10305211;28;20057;-80
2024/02/20 20:31:26;;;;;;;21.33;6.85;;;;;;;7.71;89.28;101148.72;10304210;28;20051;-81
2024/02/20 20:36:30;;;;;;;19.25;4.43;;;;;;;7.53;90.57;101147.94;10302799;28;20058;-78
2024/02/20 20:41:35;;;;;;;16.67;5.80;;;;;;;7.92;88.88;101142.13;10309578;28;20046;-82
2024/02/20 20:46:38;;;;;;;26.63;7.78;;;;;;;7.97;88.94;101152.56;10320756;28;20051;-84
2024/02/20 20:51:42;;;;;;;10.85;4.97;;;;;;;7.62;90.40;101158.09;10319320;28;20130;-80
2024/02/20 20:56:45;;;;;;;24.98;8.60;;;;;;;8.05;88.28;101131.56;10299610;28;20086;-80
2024/02/20 21:01:49;;;;;;;24.13;8.07;;;;;;;7.68;92.75;101135.53;10302822;28;20051;-80
2024/02/20 21:06:54;;;;;;;19.58;7.47;;;;;;;7.37;92.49;101142.59;10317777;28;21339;-80
2024/02/20 21:11:57;;;;;;;18.08;6.43;;;;;;;7.39;92.42;101132.69;10315191;28;20046;-81
2024/02/20 21:17:01;;;;;;;33.80;9.23;;;;;;;7.47;92.34;101124.22;10315727;28;21114;-82
2024/02/20 21:22:05;;;;;;;19.15;7.85;;;;;;;7.50;92.80;101111.53;10296536;28;20046;-80
2024/02/20 21:27:08;;;;;;;20.83;7.72;;;;;;;7.65;90.51;101109.84;10308581;28;20042;-79
2024/02/20 21:32:11;;;;;;;16.25;6.40;;;;;;;7.50;91.76;101110.69;10297269;28;20113;-81
2024/02/20 21:37:17;;;;;;;31.35;9.80;;;;;;;7.85;90.29;101097.97;10303217;28;20057;-80
2024/02/20 21:42:20;;;;;;;29.65;9.95;;;;;;;7.57;94.72;101122.78;10293324;28;20046;-81
2024/02/20 21:47:23;;;;;;;30.38;9.90;;;;;;;7.47;96.68;101121.56;10301040;28;20058;-81
2024/02/20 21:52:28;;;;;;;19.77;10.25;;;;;;;7.46;95.72;101130.50;10298261;28;20172;-80
2024/02/20 21:57:31;;;;;;;16.65;7.13;;;;;;;7.40;95.76;101122.84;10295792;28;20039;-79
2024/02/20 22:02:34;;;;;;;26.70;10.88;;;;;;;7.48;97.01;101121.47;10312695;28;20042;-80
2024/02/20 22:07:39;;;;;;;25.15;10.02;;;;;;;7.45;98.24;101113.63;10312953;28;20047;-78
2024/02/20 22:12:44;;;;;;;25.63;10.88;;;;;;;7.15;100.00;101124.19;10312287;28;20090;-79
2024/02/20 22:17:47;;;;;;;17.10;8.30;;;;;;;7.19;100.00;101116.91;10317974;28;20046;-79
2024/02/20 22:22:52;;;;;;;20.20;9.57;;;;;;;7.35;99.44;101091.03;10330768;28;20055;-79
2024/02/20 22:27:58;;;;;;;32.20;14.13;;;;;;;7.22;100.00;101080.16;10321253;28;20030;-79
2024/02/20 22:33:01;;;;;;;30.45;12.93;;;;;;;6.98;100.00;101082.38;10319223;28;20077;-79
2024/02/20 22:38:06;;;;;;;32.05;12.23;;;;;;;7.16;100.00;101083.19;10310398;28;20085;-80
2024/02/20 22:43:09;;;;;;;22.15;8.88;;;;;;;6.79;100.00;101082.50;10309589;28;20055;-77
2024/02/20 22:48:13;;;;;;;26.05;11.98;;;;;;;6.68;100.00;101092.03;10314193;28;20047;-80
2024/02/20 22:53:17;;;;;;;33.60;12.43;;;;;;;6.79;100.00;101087.84;10306455;28;20184;-80
2024/02/20 22:58:20;;;;;;;34.53;12.93;;;;;;;6.84;100.00;101067.09;10314387;28;21182;-79
2024/02/20 23:03:23;;;;;;;26.83;10.88;;;;;;;6.92;100.00;101077.38;10309701;28;20085;-76
2024/02/20 23:08:27;;;;;;;44.38;13.15;;;;;;;6.94;100.00;101078.19;10304390;28;20126;-80
2024/02/20 23:13:30;;;;;;;33.88;13.38;;;;;;;7.16;100.00;101075.19;10309319;28;21406;-77
2024/02/20 23:18:34;;;;;;;49.88;19.42;;;;;;;6.94;100.00;101072.84;10309492;28;20052;-79